sensor_id;sensor_type;location;lat;lon;timestamp;P1;durP1;ratioP1;P2;durP2;ratioP2
55987;SDS011;67216;50.930;4.514;2023-02-28T05:19:14;24.65;;;14.48;;
55987;SDS011;67216;50.930;4.514;2023-02-28T05:21:41;26.15;;;16.25;;
55987;SDS011;67216;50.930;4.514;2023-02-28T05:24:15;25.52;;;16.15;;
55987;SDS011;67216;50.930;4.514;2023-02-28T05:26:48;24.38;;;16.00;;
55987;SDS011;67216;50.930;4.514;2023-02-28T05:29:15;23.77;;;16.23;;
55987;SDS011;67216;50.930;4.514;2023-02-28T05:31:41;24.77;;;16.30;;
55987;SDS011;67216;50.930;4.514;2023-02-28T05:34:07;20.63;;;14.52;;
55987;SDS011;67216;50.930;4.514;2023-02-28T05:36:33;23.80;;;16.33;;
55987;SDS011;67216;50.930;4.514;2023-02-28T05:39:01;24.25;;;15.80;;
55987;SDS011;67216;50.930;4.514;2023-02-28T05:41:28;22.27;;;15.80;;
55987;SDS011;67216;50.930;4.514;2023-02-28T05:43:54;24.60;;;15.55;;
55987;SDS011;67216;50.930;4.514;2023-02-28T05:46:19;24.55;;;15.40;;
55987;SDS011;67216;50.930;4.514;2023-02-28T05:48:46;24.02;;;16.23;;
55987;SDS011;67216;50.930;4.514;2023-02-28T05:51:12;23.90;;;15.52;;
55987;SDS011;67216;50.930;4.514;2023-02-28T05:53:38;24.00;;;14.98;;
55987;SDS011;67216;50.930;4.514;2023-02-28T05:56:04;21.98;;;14.63;;
55987;SDS011;67216;50.930;4.514;2023-02-28T05:58:30;21.75;;;14.68;;
55987;SDS011;67216;50.930;4.514;2023-02-28T06:00:56;24.98;;;14.93;;
55987;SDS011;67216;50.930;4.514;2023-02-28T06:03:23;26.02;;;14.13;;
55987;SDS011;67216;50.930;4.514;2023-02-28T06:05:49;23.85;;;14.63;;
55987;SDS011;67216;50.930;4.514;2023-02-28T06:08:15;22.95;;;15.23;;
55987;SDS011;67216;50.930;4.514;2023-02-28T06:10:41;24.02;;;15.75;;
55987;SDS011;67216;50.930;4.514;2023-02-28T06:13:07;23.27;;;14.23;;
55987;SDS011;67216;50.930;4.514;2023-02-28T06:15:33;22.75;;;13.95;;
55987;SDS011;67216;50.930;4.514;2023-02-28T06:17:59;22.95;;;14.52;;
55987;SDS011;67216;50.930;4.514;2023-02-28T06:20:25;21.65;;;13.52;;
55987;SDS011;67216;50.930;4.514;2023-02-28T06:22:55;23.88;;;14.95;;
55987;SDS011;67216;50.930;4.514;2023-02-28T06:25:24;19.92;;;13.30;;
55987;SDS011;67216;50.930;4.514;2023-02-28T06:27:50;19.25;;;13.52;;
55987;SDS011;67216;50.930;4.514;2023-02-28T06:30:16;22.25;;;13.75;;
55987;SDS011;67216;50.930;4.514;2023-02-28T06:32:42;22.70;;;13.10;;
55987;SDS011;67216;50.930;4.514;2023-02-28T06:35:08;20.85;;;13.15;;
55987;SDS011;67216;50.930;4.514;2023-02-28T06:37:34;22.40;;;12.85;;
55987;SDS011;67216;50.930;4.514;2023-02-28T06:39:59;22.15;;;14.30;;
55987;SDS011;67216;50.930;4.514;2023-02-28T06:42:25;21.90;;;13.35;;
55987;SDS011;67216;50.930;4.514;2023-02-28T06:44:53;20.67;;;12.75;;
55987;SDS011;67216;50.930;4.514;2023-02-28T06:47:20;18.48;;;11.70;;
55987;SDS011;67216;50.930;4.514;2023-02-28T06:49:46;15.60;;;11.00;;
55987;SDS011;67216;50.930;4.514;2023-02-28T06:52:12;14.38;;;9.88;;
55987;SDS011;67216;50.930;4.514;2023-02-28T06:54:39;19.05;;;9.77;;
55987;SDS011;67216;50.930;4.514;2023-02-28T06:57:04;15.50;;;9.75;;
55987;SDS011;67216;50.930;4.514;2023-02-28T06:59:30;22.20;;;9.40;;
55987;SDS011;67216;50.930;4.514;2023-02-28T07:01:56;15.07;;;8.68;;
55987;SDS011;67216;50.930;4.514;2023-02-28T07:04:22;16.23;;;8.73;;
55987;SDS011;67216;50.930;4.514;2023-02-28T07:06:47;12.95;;;8.25;;
55987;SDS011;67216;50.930;4.514;2023-02-28T07:09:13;12.63;;;8.30;;
55987;SDS011;67216;50.930;4.514;2023-02-28T07:11:39;12.32;;;8.13;;
55987;SDS011;67216;50.930;4.514;2023-02-28T07:14:05;13.93;;;7.90;;
55987;SDS011;67216;50.930;4.514;2023-02-28T07:16:32;15.52;;;8.50;;
55987;SDS011;67216;50.930;4.514;2023-02-28T07:18:58;14.75;;;8.32;;
55987;SDS011;67216;50.930;4.514;2023-02-28T07:21:24;13.70;;;8.80;;
55987;SDS011;67216;50.930;4.514;2023-02-28T07:23:50;15.00;;;8.60;;
55987;SDS011;67216;50.930;4.514;2023-02-28T07:26:17;15.35;;;8.15;;
55987;SDS011;67216;50.930;4.514;2023-02-28T07:28:44;13.60;;;8.13;;
55987;SDS011;67216;50.930;4.514;2023-02-28T07:31:12;13.25;;;8.07;;
55987;SDS011;67216;50.930;4.514;2023-02-28T07:33:39;14.57;;;7.88;;
55987;SDS011;67216;50.930;4.514;2023-02-28T07:36:06;13.70;;;8.30;;
55987;SDS011;67216;50.930;4.514;2023-02-28T07:38:40;10.93;;;7.63;;
55987;SDS011;67216;50.930;4.514;2023-02-28T07:41:08;12.80;;;7.15;;
55987;SDS011;67216;50.930;4.514;2023-02-28T07:43:34;10.60;;;7.10;;
55987;SDS011;67216;50.930;4.514;2023-02-28T07:46:04;8.55;;;6.68;;
55987;SDS011;67216;50.930;4.514;2023-02-28T07:48:32;10.40;;;6.50;;
55987;SDS011;67216;50.930;4.514;2023-02-28T07:50:58;13.18;;;6.85;;
55987;SDS011;67216;50.930;4.514;2023-02-28T07:53:24;11.70;;;6.97;;
55987;SDS011;67216;50.930;4.514;2023-02-28T07:55:50;11.75;;;6.65;;
55987;SDS011;67216;50.930;4.514;2023-02-28T07:58:19;13.23;;;6.93;;
55987;SDS011;67216;50.930;4.514;2023-02-28T08:00:45;11.30;;;6.50;;
55987;SDS011;67216;50.930;4.514;2023-02-28T08:03:11;9.18;;;6.45;;
55987;SDS011;67216;50.930;4.514;2023-02-28T08:05:38;11.10;;;6.57;;
55987;SDS011;67216;50.930;4.514;2023-02-28T08:08:05;9.60;;;5.85;;
55987;SDS011;67216;50.930;4.514;2023-02-28T08:10:31;12.73;;;6.53;;
55987;SDS011;67216;50.930;4.514;2023-02-28T08:12:57;9.45;;;5.50;;
55987;SDS011;67216;50.930;4.514;2023-02-28T08:15:23;10.52;;;5.75;;
55987;SDS011;67216;50.930;4.514;2023-02-28T08:17:49;7.60;;;5.88;;
55987;SDS011;67216;50.930;4.514;2023-02-28T08:20:14;7.70;;;4.93;;
55987;SDS011;67216;50.930;4.514;2023-02-28T08:22:40;7.70;;;5.38;;
55987;SDS011;67216;50.930;4.514;2023-02-28T08:25:06;8.55;;;5.53;;
55987;SDS011;67216;50.930;4.514;2023-02-28T08:27:33;10.45;;;6.40;;
55987;SDS011;67216;50.930;4.514;2023-02-28T08:29:59;9.93;;;5.53;;
55987;SDS011;67216;50.930;4.514;2023-02-28T08:32:24;9.90;;;5.20;;
55987;SDS011;67216;50.930;4.514;2023-02-28T08:34:50;10.90;;;5.60;;
55987;SDS011;67216;50.930;4.514;2023-02-28T08:37:16;11.98;;;6.05;;
55987;SDS011;67216;50.930;4.514;2023-02-28T08:39:42;11.75;;;5.68;;
55987;SDS011;67216;50.930;4.514;2023-02-28T08:42:07;8.60;;;5.82;;
55987;SDS011;67216;50.930;4.514;2023-02-28T08:44:33;11.70;;;5.82;;
55987;SDS011;67216;50.930;4.514;2023-02-28T08:46:59;8.98;;;5.38;;
55987;SDS011;67216;50.930;4.514;2023-02-28T08:49:25;11.02;;;5.88;;
55987;SDS011;67216;50.930;4.514;2023-02-28T08:51:50;12.13;;;5.10;;
55987;SDS011;67216;50.930;4.514;2023-02-28T08:54:16;10.40;;;5.60;;
55987;SDS011;67216;50.930;4.514;2023-02-28T08:56:44;10.25;;;5.22;;
55987;SDS011;67216;50.930;4.514;2023-02-28T08:59:11;9.60;;;5.30;;
55987;SDS011;67216;50.930;4.514;2023-02-28T09:01:37;8.40;;;4.88;;
55987;SDS011;67216;50.930;4.514;2023-02-28T09:04:02;7.93;;;4.80;;
55987;SDS011;67216;50.930;4.514;2023-02-28T09:06:28;7.13;;;4.63;;
55987;SDS011;67216;50.930;4.514;2023-02-28T09:08:57;6.68;;;4.47;;
55987;SDS011;67216;50.930;4.514;2023-02-28T09:11:26;7.57;;;4.70;;
55987;SDS011;67216;50.930;4.514;2023-02-28T09:13:53;7.90;;;4.97;;
55987;SDS011;67216;50.930;4.514;2023-02-28T09:16:20;8.27;;;4.18;;
55987;SDS011;67216;50.930;4.514;2023-02-28T09:18:46;8.48;;;4.70;;
55987;SDS011;67216;50.930;4.514;2023-02-28T09:21:14;10.88;;;4.15;;
55987;SDS011;67216;50.930;4.514;2023-02-28T09:23:42;8.48;;;4.18;;
55987;SDS011;67216;50.930;4.514;2023-02-28T09:26:13;13.38;;;4.22;;
55987;SDS011;67216;50.930;4.514;2023-02-28T09:28:43;7.65;;;3.83;;
55987;SDS011;67216;50.930;4.514;2023-02-28T09:31:16;8.27;;;4.60;;
55987;SDS011;67216;50.930;4.514;2023-02-28T09:33:48;7.05;;;4.15;;
55987;SDS011;67216;50.930;4.514;2023-02-28T09:36:15;9.27;;;3.90;;
55987;SDS011;67216;50.930;4.514;2023-02-28T09:38:42;7.28;;;3.60;;
55987;SDS011;67216;50.930;4.514;2023-02-28T09:41:18;5.78;;;3.85;;
55987;SDS011;67216;50.930;4.514;2023-02-28T09:43:45;10.20;;;4.03;;
55987;SDS011;67216;50.930;4.514;2023-02-28T09:48:56;6.82;;;3.72;;
55987;SDS011;67216;50.930;4.514;2023-02-28T09:51:40;7.45;;;4.25;;
55987;SDS011;67216;50.930;4.514;2023-02-28T09:56:56;5.53;;;3.35;;
55987;SDS011;67216;50.930;4.514;2023-02-28T10:02:43;5.45;;;3.08;;
55987;SDS011;67216;50.930;4.514;2023-02-28T10:10:39;3.95;;;2.10;;
55987;SDS011;67216;50.930;4.514;2023-02-28T10:16:05;3.80;;;2.58;;
55987;SDS011;67216;50.930;4.514;2023-02-28T10:21:59;4.67;;;2.80;;
55987;SDS011;67216;50.930;4.514;2023-02-28T10:24:39;4.75;;;2.20;;
55987;SDS011;67216;50.930;4.514;2023-02-28T10:27:14;3.05;;;2.13;;
55987;SDS011;67216;50.930;4.514;2023-02-28T10:29:52;5.10;;;2.47;;
55987;SDS011;67216;50.930;4.514;2023-02-28T10:32:21;4.88;;;2.72;;
55987;SDS011;67216;50.930;4.514;2023-02-28T10:34:54;3.17;;;2.17;;
55987;SDS011;67216;50.930;4.514;2023-02-28T10:37:24;4.43;;;2.45;;
55987;SDS011;67216;50.930;4.514;2023-02-28T10:39:49;3.53;;;2.35;;
55987;SDS011;67216;50.930;4.514;2023-02-28T10:42:23;3.50;;;2.47;;
55987;SDS011;67216;50.930;4.514;2023-02-28T10:45:12;4.50;;;2.55;;
55987;SDS011;67216;50.930;4.514;2023-02-28T10:47:59;5.63;;;2.78;;
55987;SDS011;67216;50.930;4.514;2023-02-28T10:50:34;8.23;;;2.90;;
55987;SDS011;67216;50.930;4.514;2023-02-28T10:58:23;3.20;;;2.22;;
55987;SDS011;67216;50.930;4.514;2023-02-28T11:00:51;5.40;;;2.72;;
55987;SDS011;67216;50.930;4.514;2023-02-28T11:03:23;5.97;;;3.00;;
55987;SDS011;67216;50.930;4.514;2023-02-28T11:05:53;3.80;;;2.78;;
55987;SDS011;67216;50.930;4.514;2023-02-28T11:08:19;5.32;;;2.58;;
55987;SDS011;67216;50.930;4.514;2023-02-28T11:10:46;4.00;;;2.50;;
55987;SDS011;67216;50.930;4.514;2023-02-28T11:13:20;3.95;;;2.58;;
55987;SDS011;67216;50.930;4.514;2023-02-28T11:15:59;3.85;;;2.35;;
55987;SDS011;67216;50.930;4.514;2023-02-28T11:18:33;4.25;;;2.30;;
55987;SDS011;67216;50.930;4.514;2023-02-28T11:21:07;4.53;;;2.47;;
55987;SDS011;67216;50.930;4.514;2023-02-28T11:23:35;4.28;;;2.70;;
55987;SDS011;67216;50.930;4.514;2023-02-28T11:26:05;6.47;;;2.78;;
55987;SDS011;67216;50.930;4.514;2023-02-28T11:28:35;5.20;;;2.55;;
55987;SDS011;67216;50.930;4.514;2023-02-28T11:38:46;7.22;;;3.10;;
55987;SDS011;67216;50.930;4.514;2023-02-28T11:41:30;5.22;;;2.92;;
55987;SDS011;67216;50.930;4.514;2023-02-28T11:46:43;6.03;;;2.58;;
55987;SDS011;67216;50.930;4.514;2023-02-28T11:49:32;5.65;;;3.30;;
55987;SDS011;67216;50.930;4.514;2023-02-28T11:54:50;5.60;;;3.20;;
55987;SDS011;67216;50.930;4.514;2023-02-28T11:57:22;4.80;;;2.72;;
55987;SDS011;67216;50.930;4.514;2023-02-28T12:05:43;4.68;;;2.78;;
55987;SDS011;67216;50.930;4.514;2023-02-28T12:08:26;7.53;;;2.80;;
55987;SDS011;67216;50.930;4.514;2023-02-28T12:14:01;4.20;;;2.60;;
55987;SDS011;67216;50.930;4.514;2023-02-28T12:22:37;6.40;;;2.80;;
55987;SDS011;67216;50.930;4.514;2023-02-28T12:25:19;4.50;;;2.50;;
55987;SDS011;67216;50.930;4.514;2023-02-28T12:28:02;4.57;;;2.53;;
55987;SDS011;67216;50.930;4.514;2023-02-28T12:30:32;5.15;;;2.67;;
55987;SDS011;67216;50.930;4.514;2023-02-28T12:33:04;4.40;;;2.47;;
55987;SDS011;67216;50.930;4.514;2023-02-28T12:35:55;3.83;;;2.83;;
55987;SDS011;67216;50.930;4.514;2023-02-28T12:41:00;7.40;;;2.70;;
55987;SDS011;67216;50.930;4.514;2023-02-28T12:43:43;5.57;;;2.50;;
55987;SDS011;67216;50.930;4.514;2023-02-28T12:46:21;4.55;;;2.35;;
55987;SDS011;67216;50.930;4.514;2023-02-28T12:51:49;5.95;;;2.55;;
55987;SDS011;67216;50.930;4.514;2023-02-28T12:54:28;5.07;;;2.80;;
55987;SDS011;67216;50.930;4.514;2023-02-28T12:59:51;4.00;;;2.70;;
55987;SDS011;67216;50.930;4.514;2023-02-28T13:10:22;3.30;;;2.40;;
55987;SDS011;67216;50.930;4.514;2023-02-28T13:12:52;4.32;;;2.70;;
55987;SDS011;67216;50.930;4.514;2023-02-28T13:15:24;3.55;;;2.25;;
55987;SDS011;67216;50.930;4.514;2023-02-28T13:17:54;5.68;;;2.78;;
55987;SDS011;67216;50.930;4.514;2023-02-28T13:20:26;4.65;;;2.88;;
55987;SDS011;67216;50.930;4.514;2023-02-28T13:22:59;5.47;;;2.80;;
55987;SDS011;67216;50.930;4.514;2023-02-28T13:28:11;3.53;;;2.45;;
55987;SDS011;67216;50.930;4.514;2023-02-28T13:33:20;4.15;;;2.80;;
55987;SDS011;67216;50.930;4.514;2023-02-28T13:35:50;4.55;;;2.83;;
55987;SDS011;67216;50.930;4.514;2023-02-28T13:38:59;6.40;;;3.30;;
55987;SDS011;67216;50.930;4.514;2023-02-28T13:44:04;7.13;;;2.83;;
55987;SDS011;67216;50.930;4.514;2023-02-28T13:51:50;4.78;;;2.60;;
55987;SDS011;67216;50.930;4.514;2023-02-28T13:57:12;6.75;;;3.00;;
55987;SDS011;67216;50.930;4.514;2023-02-28T14:03:07;10.15;;;3.15;;
55987;SDS011;67216;50.930;4.514;2023-02-28T14:05:47;5.05;;;2.80;;
55987;SDS011;67216;50.930;4.514;2023-02-28T14:08:32;4.80;;;2.95;;
55987;SDS011;67216;50.930;4.514;2023-02-28T14:11:03;6.50;;;3.20;;
55987;SDS011;67216;50.930;4.514;2023-02-28T14:16:13;5.10;;;3.00;;
55987;SDS011;67216;50.930;4.514;2023-02-28T14:18:54;5.45;;;2.90;;
55987;SDS011;67216;50.930;4.514;2023-02-28T14:21:27;5.97;;;3.35;;
55987;SDS011;67216;50.930;4.514;2023-02-28T14:38:20;4.28;;;3.40;;
55987;SDS011;67216;50.930;4.514;2023-02-28T14:40:49;6.18;;;3.63;;
55987;SDS011;67216;50.930;4.514;2023-02-28T14:43:25;7.82;;;3.58;;
55987;SDS011;67216;50.930;4.514;2023-02-28T14:46:02;4.95;;;3.40;;
55987;SDS011;67216;50.930;4.514;2023-02-28T14:48:31;6.95;;;3.90;;
55987;SDS011;67216;50.930;4.514;2023-02-28T14:50:59;6.88;;;3.70;;
55987;SDS011;67216;50.930;4.514;2023-02-28T14:53:27;5.47;;;3.40;;
55987;SDS011;67216;50.930;4.514;2023-02-28T14:55:55;5.45;;;3.58;;
55987;SDS011;67216;50.930;4.514;2023-02-28T15:00:52;4.47;;;3.35;;
55987;SDS011;67216;50.930;4.514;2023-02-28T15:03:20;5.60;;;3.95;;
55987;SDS011;67216;50.930;4.514;2023-02-28T15:06:00;9.48;;;3.63;;
55987;SDS011;67216;50.930;4.514;2023-02-28T15:08:28;4.00;;;3.15;;
55987;SDS011;67216;50.930;4.514;2023-02-28T15:11:01;4.70;;;3.10;;
55987;SDS011;67216;50.930;4.514;2023-02-28T15:13:48;4.47;;;3.17;;
55987;SDS011;67216;50.930;4.514;2023-02-28T15:16:21;4.28;;;3.40;;
55987;SDS011;67216;50.930;4.514;2023-02-28T15:18:54;5.30;;;3.55;;
55987;SDS011;67216;50.930;4.514;2023-02-28T15:21:28;4.45;;;3.17;;
55987;SDS011;67216;50.930;4.514;2023-02-28T15:23:59;5.47;;;3.60;;
55987;SDS011;67216;50.930;4.514;2023-02-28T15:26:34;8.98;;;3.58;;
55987;SDS011;67216;50.930;4.514;2023-02-28T15:29:08;5.28;;;3.33;;
55987;SDS011;67216;50.930;4.514;2023-02-28T15:31:46;5.25;;;3.58;;
55987;SDS011;67216;50.930;4.514;2023-02-28T15:34:39;7.22;;;3.60;;
55987;SDS011;67216;50.930;4.514;2023-02-28T15:39:51;5.00;;;3.38;;
55987;SDS011;67216;50.930;4.514;2023-02-28T15:42:20;4.63;;;3.42;;
55987;SDS011;67216;50.930;4.514;2023-02-28T15:44:47;5.07;;;3.30;;
55987;SDS011;67216;50.930;4.514;2023-02-28T15:47:19;5.90;;;3.42;;
55987;SDS011;67216;50.930;4.514;2023-02-28T15:52:24;7.07;;;3.13;;
55987;SDS011;67216;50.930;4.514;2023-02-28T15:55:17;6.10;;;3.20;;
55987;SDS011;67216;50.930;4.514;2023-02-28T15:57:52;4.63;;;3.47;;
55987;SDS011;67216;50.930;4.514;2023-02-28T16:00:24;5.30;;;3.30;;
55987;SDS011;67216;50.930;4.514;2023-02-28T16:02:51;6.57;;;3.45;;
55987;SDS011;67216;50.930;4.514;2023-02-28T16:05:21;6.05;;;3.33;;
55987;SDS011;67216;50.930;4.514;2023-02-28T16:07:55;6.13;;;3.40;;
55987;SDS011;67216;50.930;4.514;2023-02-28T16:10:23;6.55;;;3.50;;
55987;SDS011;67216;50.930;4.514;2023-02-28T16:12:52;5.47;;;3.22;;
55987;SDS011;67216;50.930;4.514;2023-02-28T16:15:25;5.50;;;3.42;;
55987;SDS011;67216;50.930;4.514;2023-02-28T16:17:53;6.32;;;3.00;;
55987;SDS011;67216;50.930;4.514;2023-02-28T16:22:48;6.32;;;3.58;;
55987;SDS011;67216;50.930;4.514;2023-02-28T16:25:23;6.82;;;3.60;;
55987;SDS011;67216;50.930;4.514;2023-02-28T16:27:54;5.10;;;3.75;;
55987;SDS011;67216;50.930;4.514;2023-02-28T16:30:26;6.78;;;3.42;;
55987;SDS011;67216;50.930;4.514;2023-02-28T16:32:54;6.53;;;3.88;;
55987;SDS011;67216;50.930;4.514;2023-02-28T16:35:21;5.28;;;3.15;;
55987;SDS011;67216;50.930;4.514;2023-02-28T16:37:48;6.55;;;3.60;;
55987;SDS011;67216;50.930;4.514;2023-02-28T16:40:17;6.85;;;3.40;;
55987;SDS011;67216;50.930;4.514;2023-02-28T16:45:20;5.90;;;3.70;;
55987;SDS011;67216;50.930;4.514;2023-02-28T16:47:48;9.82;;;3.35;;
55987;SDS011;67216;50.930;4.514;2023-02-28T16:50:21;6.63;;;2.83;;
55987;SDS011;67216;50.930;4.514;2023-02-28T16:52:47;7.70;;;3.58;;
55987;SDS011;67216;50.930;4.514;2023-02-28T16:55:14;6.85;;;3.25;;
55987;SDS011;67216;50.930;4.514;2023-02-28T16:57:40;7.35;;;3.40;;
55987;SDS011;67216;50.930;4.514;2023-02-28T17:00:08;10.02;;;3.42;;
55987;SDS011;67216;50.930;4.514;2023-02-28T17:02:37;5.97;;;2.95;;
55987;SDS011;67216;50.930;4.514;2023-02-28T17:05:03;8.38;;;3.00;;
55987;SDS011;67216;50.930;4.514;2023-02-28T17:07:29;6.07;;;3.33;;
55987;SDS011;67216;50.930;4.514;2023-02-28T17:09:55;7.40;;;3.08;;
55987;SDS011;67216;50.930;4.514;2023-02-28T17:12:20;6.25;;;3.03;;
55987;SDS011;67216;50.930;4.514;2023-02-28T17:14:46;7.07;;;3.28;;
55987;SDS011;67216;50.930;4.514;2023-02-28T17:17:20;5.07;;;3.17;;
55987;SDS011;67216;50.930;4.514;2023-02-28T17:19:46;7.32;;;3.17;;
55987;SDS011;67216;50.930;4.514;2023-02-28T17:22:13;6.30;;;3.60;;
55987;SDS011;67216;50.930;4.514;2023-02-28T17:24:39;6.20;;;3.10;;
55987;SDS011;67216;50.930;4.514;2023-02-28T17:27:05;5.88;;;3.35;;
55987;SDS011;67216;50.930;4.514;2023-02-28T17:29:32;7.93;;;3.42;;
55987;SDS011;67216;50.930;4.514;2023-02-28T17:31:58;6.00;;;3.47;;
55987;SDS011;67216;50.930;4.514;2023-02-28T17:34:24;7.72;;;3.50;;
55987;SDS011;67216;50.930;4.514;2023-02-28T17:36:50;5.85;;;3.00;;
55987;SDS011;67216;50.930;4.514;2023-02-28T17:39:17;11.75;;;3.53;;
55987;SDS011;67216;50.930;4.514;2023-02-28T17:41:49;5.80;;;2.80;;
55987;SDS011;67216;50.930;4.514;2023-02-28T17:44:19;6.93;;;3.40;;
55987;SDS011;67216;50.930;4.514;2023-02-28T17:46:45;9.38;;;3.30;;
55987;SDS011;67216;50.930;4.514;2023-02-28T17:49:12;7.20;;;3.67;;
55987;SDS011;67216;50.930;4.514;2023-02-28T17:51:37;7.35;;;3.22;;
55987;SDS011;67216;50.930;4.514;2023-02-28T17:54:03;7.40;;;3.38;;
55987;SDS011;67216;50.930;4.514;2023-02-28T17:56:30;5.20;;;3.55;;
